Tuesday, September 23, 2014
06:28 UTC
  |  Log In   |  Register Free
Airport Search:

Fort Smith Regional Airport
(KFSM)

FAA data valid effective September 18, 2014 - November 13, 2014 (unless otherwise noted).

 
 
 
 
 
 
 
 
 
 
 
 
 
 

Current Aviation Weather for Fort Smith Regional Airport (KFSM)

The most recent METAR observation for KFSM was updated at: 0609
METAR Summary (Translated METAR)
KFSM
230553Z AUTO 00000KT 10SM CLR 16/14 A3020 RMK AO2 SLP222 T01610139 10233 20161 402610133 50003
KJSV
230555Z AUTO 00000KT 10SM CLR 14/13 A3020 RMK AO2
(22.2 nm NW from KFSM)
KRKR
230555Z AUTO 00000KT 3SM BR SCT002 14/13 A3020 RMK AO2 T01350126 10225 20135 402500127
(22.6 nm SW from KFSM)
TAF
No TAF information found within 50 nm of KFSM
  Airport Weather Conditions for KFSM

 Current Weather at FSM
61° F
Fair
North winds at 0.0 mph
FSM NOAA Radar

Pressure: 30.20 in
Humidity: 87%
Wind: Calm
Dew Point: 57.0°F
Visibility: 10.00 mi


Airport Weather Forecast for KFSM

Translated METAR and TAF for KFSM
Translated METAR for KFSM (0622 UTC 23 September 2014)
found at http://aviationweather.gov/adds/metars/
 
METAR text: KFSM 230553Z AUTO 00000KT 10SM CLR 16/14 A3020 RMK AO2 SLP222 T01610139 10233 20161 402610133 50003
Conditions at: KFSM (FORT SMITH , AR, US) observed 0553 UTC 23 September 2014
Temperature: 16.1°C (61°F)
Dewpoint: 13.9°C (57°F) [RH = 87%]
Pressure (altimeter): 30.20 inches Hg (1022.8 mb)
[Sea-level pressure: 1022.2 mb]
Winds: calm
Visibility: 10 or more miles (16+ km)
Ceiling: at least 12,000 feet AGL
Clouds: sky clear below 12,000 feet AGL
Weather: automated observation with no human augmentation;
there may or may not be significant weather present at this time
Translated TAF for KFSM
Forecast for: KFSM (FORT SMITH , AR, US)
TAF Text: KFSM 230520Z 2306/2406 08006KT P6SM SCT250
Forecast period: 0600 UTC 23 September 2014 to 0600 UTC 24 September 2014
Forecast type: FROM: standard forecast or significant change
Winds: from the E (80 degrees) at 7 MPH (6 knots; 3.1 m/s)
Visibility: 6 or more miles (10+ km)
Clouds: scattered clouds at 25000 feet AGL
Weather: no significant weather forecast for this period

Find All Airport Services Find A Hotel Find A Rental Car Find A Golf Course Find A Restaurant $100 Hamburger



FBO's on the Field
FBO Company Facility Photos Services Transportation Aviation Fuel Prices: Prices include tax
Catering Weather Repair Courtesy Rental Type 100LL JetA JetA+ MOGAS 8087
 
TAC Air - FSM

This FBO has not yet been rated
FS:Independent
Last Updated: Sep-18
Login to update fuel prices
SS:
Contact TAC Air - FSMMore FBO Information
 
Add another FBO Facility Photos Catering Weather Repair Courtesy Rental Type 100LL JetA JetA+ MOGAS 8087
Services Transportation Aviation Fuel Prices: Prices include tax


model-print
model-print
model-print
model-print